Time;durP1;ratioP1;P1;durP2;ratioP2;P2;SDS_P1;SDS_P2;PMS_P1;PMS_P2;Temp;Humidity;BMP_temperature;BMP_pressure;BME280_temperature;BME280_humidity;BME280_pressure;Samples;Min_cycle;Max_cycle;Signal;HPM_P1;HPM_P2
2024/03/22 00:04:51;;;;;;;10.63;9.63;;;;;;;10.88;83.78;96263.66;6130336;23;20197;-86
2024/03/22 00:07:32;;;;;;;11.23;10.03;;;;;;;10.89;83.96;96275.56;6181782;23;20198;-84
2024/03/22 00:16:10;;;;;;;11.43;10.30;;;;;;;10.82;83.95;96266.88;6179138;23;20261;-84
2024/03/22 00:18:44;;;;;;;10.47;9.37;;;;;;;10.83;84.02;96271.06;6181121;23;20186;-85
2024/03/22 00:21:34;;;;;;;11.23;10.03;;;;;;;10.84;83.91;96267.50;6182033;23;20619;-85
2024/03/22 00:24:05;;;;;;;11.27;10.17;;;;;;;10.84;83.77;96266.69;6181367;23;20238;-85
2024/03/22 00:26:39;;;;;;;10.93;9.83;;;;;;;10.84;83.45;96257.22;6181738;23;20253;-84
2024/03/22 00:32:23;;;;;;;10.70;9.70;;;;;;;10.86;83.75;96257.84;6177762;23;20193;-85
2024/03/22 00:34:55;;;;;;;11.83;10.57;;;;;;;10.84;83.59;96252.06;6179663;23;20162;-86
2024/03/22 00:37:34;;;;;;;11.97;10.77;;;;;;;10.82;83.65;96243.69;6182082;23;20262;-88
2024/03/22 00:40:29;;;;;;;11.63;10.53;;;;;;;10.84;83.59;96251.25;6181911;23;20162;-85
2024/03/22 00:43:30;;;;;;;11.93;10.37;;;;;;;10.80;83.12;96235.31;6181098;23;20221;-86
2024/03/22 00:46:21;;;;;;;10.77;9.67;;;;;;;10.79;83.37;96236.28;6181109;23;20182;-85
2024/03/22 00:48:50;;;;;;;11.20;10.10;;;;;;;10.81;83.05;96221.47;6181085;23;20154;-86
2024/03/22 00:51:19;;;;;;;11.80;10.57;;;;;;;10.84;83.10;96217.75;6181047;23;20224;-85
2024/03/22 00:53:50;;;;;;;11.93;10.53;;;;;;;10.84;82.76;96213.41;6181576;23;20198;-85
2024/03/22 00:56:16;;;;;;;11.37;10.07;;;;;;;10.84;82.01;96197.97;6180883;23;20610;-86
2024/03/22 00:59:00;;;;;;;10.70;9.70;;;;;;;10.82;81.70;96178.47;6181215;23;20174;-84
2024/03/22 01:02:14;;;;;;;11.17;10.10;;;;;;;10.86;81.73;96180.56;6181146;23;20158;-85
2024/03/22 01:04:39;;;;;;;11.67;10.43;;;;;;;10.84;81.47;96168.81;6171298;23;20174;-85
2024/03/22 01:07:28;;;;;;;13.63;10.57;;;;;;;10.82;81.18;96163.81;6180447;23;20201;-86
2024/03/22 01:10:29;;;;;;;10.93;9.83;;;;;;;10.85;81.29;96168.66;6163249;23;20205;-85
2024/03/22 01:13:00;;;;;;;11.57;10.13;;;;;;;10.85;81.17;96162.69;6169843;23;20241;-86
2024/03/22 01:15:38;;;;;;;;;;;;;;;;;;;;;
2024/03/22 01:18:23;;;;;;;12.40;11.20;;;;;;;10.78;80.91;96151.44;6181232;23;20194;-85
2024/03/22 01:20:52;;;;;;;12.47;11.27;;;;;;;10.79;80.94;96145.31;6181029;23;20178;-85
2024/03/22 01:23:49;;;;;;;11.07;9.97;;;;;;;10.79;80.66;96148.69;6180661;23;20196;-84
2024/03/22 01:26:30;;;;;;;11.70;10.23;;;;;;;10.76;80.66;96140.50;6180911;23;20170;-84
2024/03/22 01:29:00;;;;;;;11.60;10.50;;;;;;;10.72;80.67;96127.97;6180857;23;20166;-85
2024/03/22 01:31:44;;;;;;;11.57;10.37;;;;;;;10.69;80.62;96141.16;6181634;23;20217;-86
2024/03/22 01:34:26;;;;;;;11.80;10.67;;;;;;;10.67;80.95;96147.44;6177532;23;20175;-85
2024/03/22 01:37:03;;;;;;;11.83;10.60;;;;;;;10.63;81.12;96146.94;6180904;23;20170;-85
2024/03/22 01:39:44;;;;;;;11.97;10.70;;;;;;;10.65;81.10;96141.63;6180225;23;20193;-86
2024/03/22 01:45:06;;;;;;;11.87;10.67;;;;;;;10.60;81.07;96133.59;6210343;23;20247;-85
2024/03/22 01:47:46;;;;;;;11.90;10.53;;;;;;;10.56;81.07;96132.34;6211029;23;20231;-85
2024/03/22 01:50:37;;;;;;;12.37;10.80;;;;;;;10.56;81.20;96130.56;6210994;23;20169;-85
2024/03/22 01:53:45;;;;;;;;;;;;;;;;;;;;;
2024/03/22 01:56:29;;;;;;;12.03;10.70;;;;;;;10.56;81.09;96124.59;6209996;23;20253;-85
2024/03/22 01:59:06;;;;;;;11.70;10.60;;;;;;;10.55;81.01;96115.28;6210691;23;20259;-85
2024/03/22 02:02:05;;;;;;;12.37;11.07;;;;;;;10.53;80.88;96112.84;6210549;23;20166;-85
2024/03/22 02:04:40;;;;;;;12.10;10.80;;;;;;;10.52;80.68;96110.44;6205331;23;20196;-85
2024/03/22 02:10:44;;;;;;;11.37;10.17;;;;;;;10.49;81.16;96109.00;6206969;23;20177;-86
2024/03/22 02:13:21;;;;;;;12.43;10.97;;;;;;;10.52;81.10;96108.66;6208864;23;20201;-85
2024/03/22 02:15:58;;;;;;;11.93;10.37;;;;;;;10.53;80.97;96109.47;6210504;23;20762;-86
2024/03/22 02:18:33;;;;;;;11.67;10.47;;;;;;;10.52;80.97;96115.59;6211125;23;20161;-86
2024/03/22 02:21:12;;;;;;;11.50;10.40;;;;;;;10.52;81.14;96107.88;6210233;23;20174;-85
2024/03/22 02:23:42;;;;;;;12.50;11.20;;;;;;;10.49;80.42;96090.97;6210957;23;20197;-85
2024/03/22 02:26:19;;;;;;;12.10;10.90;;;;;;;10.49;80.53;96095.31;6210206;23;20200;-85
2024/03/22 02:28:55;;;;;;;11.73;10.60;;;;;;;10.46;80.35;96087.91;6210057;23;20204;-85
2024/03/22 02:31:37;;;;;;;12.50;11.30;;;;;;;10.46;80.55;96085.34;6210570;23;20156;-85
2024/03/22 02:34:33;;;;;;;11.90;10.70;;;;;;;10.44;80.44;96082.13;6209451;23;20527;-85
2024/03/22 02:37:01;;;;;;;14.17;10.67;;;;;;;10.42;80.09;96066.03;6210055;23;20207;-85
2024/03/22 02:39:32;;;;;;;12.57;11.07;;;;;;;10.43;80.13;96070.22;6210412;23;20200;-84
2024/03/22 02:42:04;;;;;;;11.30;10.20;;;;;;;10.41;79.93;96070.38;6210242;23;20223;-85
2024/03/22 02:44:45;;;;;;;;;;;;;;;;;;;;;
2024/03/22 02:47:28;;;;;;;11.73;10.53;;;;;;;10.41;80.17;96054.94;6209893;23;20747;-86
2024/03/22 02:50:20;;;;;;;12.23;10.87;;;;;;;10.38;79.94;96060.44;6210060;23;20150;-86
2024/03/22 02:53:03;;;;;;;11.27;10.13;;;;;;;10.37;79.96;96069.94;6209715;23;20193;-86
2024/03/22 02:55:56;;;;;;;12.50;10.90;;;;;;;10.36;80.10;96063.16;6210079;23;20174;-85
2024/03/22 02:58:44;;;;;;;12.40;11.20;;;;;;;10.33;79.52;96040.31;6209562;23;20178;-86
2024/03/22 03:01:27;;;;;;;12.50;11.20;;;;;;;10.32;79.55;96038.72;6210123;23;20212;-85
2024/03/22 03:04:08;;;;;;;12.23;10.93;;;;;;;10.28;79.82;96045.16;6210558;23;20189;-84
2024/03/22 03:06:58;;;;;;;12.10;10.90;;;;;;;10.26;79.86;96034.22;6209567;23;20257;-85
2024/03/22 03:09:34;;;;;;;13.47;12.07;;;;;;;10.22;79.99;96038.06;6210224;23;20516;-85
2024/03/22 03:12:32;;;;;;;12.93;11.63;;;;;;;10.19;79.90;96033.28;6209506;23;20213;-86
2024/03/22 03:14:59;;;;;;;13.30;11.70;;;;;;;10.18;80.07;96041.94;6209118;23;20170;-86
2024/03/22 03:17:25;;;;;;;13.63;12.13;;;;;;;10.15;80.33;96046.59;6209607;23;20248;-85
2024/03/22 03:19:54;;;;;;;13.07;11.63;;;;;;;10.11;80.38;96040.97;6209670;23;20192;-85
2024/03/22 03:22:20;;;;;;;12.93;11.63;;;;;;;10.12;80.45;96036.63;6209219;23;20540;-86
2024/03/22 03:24:47;;;;;;;13.07;11.63;;;;;;;10.11;80.44;96038.38;6209880;23;20227;-85
2024/03/22 03:27:14;;;;;;;13.30;11.90;;;;;;;10.07;80.59;96038.88;6209095;23;20661;-85
2024/03/22 03:29:40;;;;;;;13.70;12.40;;;;;;;10.07;80.65;96041.44;6209361;23;20259;-84
2024/03/22 03:32:22;;;;;;;13.20;11.80;;;;;;;10.08;80.57;96032.75;6209072;23;20268;-86
2024/03/22 03:34:54;;;;;;;14.37;12.33;;;;;;;10.07;80.44;96021.66;6210964;23;20244;-85
2024/03/22 03:37:20;;;;;;;13.67;12.27;;;;;;;10.08;80.16;96027.59;6211918;23;20276;-86
2024/03/22 03:39:52;;;;;;;14.23;12.73;;;;;;;10.05;80.40;96029.53;6212507;23;20192;-85
2024/03/22 03:42:22;;;;;;;13.37;11.97;;;;;;;10.05;80.42;96021.81;6211582;23;20208;-85
2024/03/22 03:44:51;;;;;;;13.83;11.73;;;;;;;10.05;80.01;96016.69;6211903;23;20185;-86
2024/03/22 03:47:30;;;;;;;13.77;12.37;;;;;;;10.03;80.40;96023.75;6210627;23;20189;-86
2024/03/22 03:49:59;;;;;;;13.80;12.40;;;;;;;10.00;80.49;96020.72;6211520;23;20556;-85
2024/03/22 03:52:28;;;;;;;14.40;12.90;;;;;;;9.96;80.07;96015.09;6211744;23;20579;-85
2024/03/22 03:55:01;;;;;;;13.97;12.47;;;;;;;10.02;80.35;96013.63;6211269;23;20177;-85
2024/03/22 03:57:31;;;;;;;13.77;12.20;;;;;;;9.99;80.37;96006.25;6211016;23;20169;-86
2024/03/22 03:59:59;;;;;;;13.93;12.50;;;;;;;9.92;80.35;96002.72;6211519;23;20196;-86
2024/03/22 04:02:27;;;;;;;13.90;12.53;;;;;;;9.93;80.46;96012.03;6211264;23;20221;-85
2024/03/22 04:04:53;;;;;;;13.90;12.50;;;;;;;9.87;80.78;96017.81;6210712;23;20193;-85
2024/03/22 04:07:23;;;;;;;14.13;12.63;;;;;;;9.86;81.00;96011.88;6211205;23;20774;-86
2024/03/22 04:09:48;;;;;;;14.93;12.77;;;;;;;9.85;81.21;96020.53;6211770;23;20176;-86
2024/03/22 04:12:23;;;;;;;13.40;12.10;;;;;;;9.87;81.33;96016.03;6210770;23;20201;-84
2024/03/22 04:14:51;;;;;;;13.70;12.30;;;;;;;9.87;81.33;96018.63;6211691;23;20196;-86
2024/03/22 04:17:25;;;;;;;13.87;12.03;;;;;;;9.86;81.16;96021.34;6211017;23;20197;-85
2024/03/22 04:19:53;;;;;;;13.13;11.83;;;;;;;9.87;81.56;96021.19;6211140;23;20632;-86
2024/03/22 04:22:20;;;;;;;13.27;11.80;;;;;;;9.90;81.58;96007.22;6211124;23;20189;-86
2024/03/22 04:24:46;;;;;;;16.77;12.70;;;;;;;9.90;81.53;96013.16;6211108;23;20181;-85
2024/03/22 04:27:14;;;;;;;13.30;12.00;;;;;;;9.93;81.76;96017.97;6210531;23;20173;-86
2024/03/22 04:29:40;;;;;;;13.87;12.37;;;;;;;9.97;82.08;96015.91;6211257;23;20174;-85
2024/03/22 04:32:08;;;;;;;13.33;11.93;;;;;;;10.00;82.03;96029.25;6211128;23;20190;-86
2024/03/22 04:34:34;;;;;;;14.10;12.70;;;;;;;9.97;82.34;96031.31;6210155;23;20181;-86
2024/03/22 04:37:00;;;;;;;14.43;12.87;;;;;;;9.99;82.24;96034.53;6210422;23;20532;-85
2024/03/22 04:39:29;;;;;;;13.40;12.03;;;;;;;9.96;82.36;96035.66;6211549;23;20192;-86
2024/03/22 04:41:58;;;;;;;14.13;12.63;;;;;;;9.98;82.52;96028.59;6211334;23;20252;-85
2024/03/22 04:44:29;;;;;;;13.47;12.07;;;;;;;9.98;82.39;96036.31;6210630;23;20201;-86
2024/03/22 04:46:55;;;;;;;14.37;12.43;;;;;;;9.99;82.83;96047.41;6211160;23;20166;-84
2024/03/22 04:49:26;;;;;;;13.37;11.97;;;;;;;9.95;82.87;96043.53;6211208;23;20193;-85
2024/03/22 04:51:52;;;;;;;14.07;12.67;;;;;;;9.93;82.96;96051.41;6210784;23;20509;-85
2024/03/22 04:54:21;;;;;;;13.83;12.43;;;;;;;9.96;82.98;96038.25;6211368;23;20184;-87
2024/03/22 04:56:52;;;;;;;13.93;12.43;;;;;;;9.89;83.73;96065.56;6211016;23;20546;-84
2024/03/22 04:59:18;;;;;;;14.47;12.77;;;;;;;9.86;84.19;96072.78;6211027;23;20185;-86
2024/03/22 05:01:53;;;;;;;13.97;12.30;;;;;;;9.87;84.28;96075.19;6210580;23;20173;-85
2024/03/22 05:04:40;;;;;;;13.33;11.17;;;;;;;9.80;84.92;96084.53;6210450;23;20260;-85
2024/03/22 05:07:10;;;;;;;14.03;12.00;;;;;;;9.74;85.61;96097.22;6211136;23;20169;-85
2024/03/22 05:09:42;;;;;;;12.67;11.30;;;;;;;9.72;86.14;96105.09;6210001;23;20528;-86
2024/03/22 05:12:14;;;;;;;13.17;11.27;;;;;;;9.68;86.76;96124.34;6210824;23;20201;-86
2024/03/22 05:14:50;;;;;;;13.57;12.03;;;;;;;9.74;86.54;96122.94;6211231;23;20158;-85
2024/03/22 05:17:19;;;;;;;12.90;11.40;;;;;;;9.80;86.42;96109.44;6211451;23;20168;-86
2024/03/22 05:19:51;;;;;;;12.87;11.57;;;;;;;9.81;86.12;96103.34;6210853;23;20169;-86
2024/03/22 05:22:28;;;;;;;13.10;11.33;;;;;;;9.89;85.94;96100.75;6210131;23;20506;-85
2024/03/22 05:25:03;;;;;;;13.20;11.70;;;;;;;9.93;85.82;96102.88;6206590;23;20177;-86
2024/03/22 05:27:48;;;;;;;12.57;11.27;;;;;;;9.94;86.04;96103.66;6209356;23;20241;-84
2024/03/22 05:30:18;;;;;;;14.17;11.50;;;;;;;10.02;85.33;96096.75;6210617;23;20612;-86
2024/03/22 05:32:44;;;;;;;12.10;10.80;;;;;;;10.07;85.11;96098.03;6209798;23;20243;-85
2024/03/22 05:35:14;;;;;;;12.43;11.17;;;;;;;10.06;85.24;96092.09;6208860;23;20656;-85
2024/03/22 05:37:41;;;;;;;11.30;10.20;;;;;;;10.15;85.06;96098.06;6210582;23;20655;-86
2024/03/22 05:40:10;;;;;;;11.77;10.57;;;;;;;10.13;85.16;96095.63;6209346;23;20184;-85
2024/03/22 05:42:39;;;;;;;12.50;11.17;;;;;;;10.18;85.33;96090.81;6209054;23;20201;-85
2024/03/22 05:45:08;;;;;;;12.13;10.97;;;;;;;10.21;85.38;96093.06;6209459;23;20204;-85
2024/03/22 05:47:38;;;;;;;11.93;10.57;;;;;;;10.26;85.04;96085.69;6210209;23;20170;-85
2024/03/22 05:50:07;;;;;;;13.53;11.20;;;;;;;10.20;85.71;96101.75;6210552;23;20553;-83
2024/03/22 05:52:42;;;;;;;12.03;10.63;;;;;;;10.20;85.50;96085.53;6212129;23;20273;-85
2024/03/22 05:55:07;;;;;;;12.40;10.57;;;;;;;10.18;85.71;96083.09;6209327;23;20172;-85
2024/03/22 05:57:34;;;;;;;11.07;9.87;;;;;;;10.22;85.97;96088.72;6209538;23;20180;-85
2024/03/22 06:00:02;;;;;;;12.33;10.27;;;;;;;10.22;85.83;96101.59;6209525;23;20565;-85
2024/03/22 06:02:29;;;;;;;11.20;10.07;;;;;;;10.28;85.60;96094.03;6211812;23;20268;-85
2024/03/22 06:04:57;;;;;;;11.43;10.23;;;;;;;10.35;85.05;96083.91;6209837;23;20201;-84
2024/03/22 06:07:24;;;;;;;10.93;9.57;;;;;;;10.36;84.72;96072.66;6209629;23;20556;-85
2024/03/22 06:09:52;;;;;;;11.67;10.33;;;;;;;10.39;84.69;96069.75;6210022;23;20165;-85
2024/03/22 06:12:24;;;;;;;10.63;9.57;;;;;;;10.35;84.75;96058.97;6208948;23;20738;-84
2024/03/22 06:14:52;;;;;;;10.50;9.40;;;;;;;10.27;85.42;96068.47;6209177;23;20208;-85
2024/03/22 06:17:21;;;;;;;11.17;9.90;;;;;;;10.21;85.25;96075.06;6209586;23;20173;-85
2024/03/22 06:19:47;;;;;;;10.73;9.73;;;;;;;10.30;85.29;96075.88;6209715;23;20227;-84
2024/03/22 06:22:13;;;;;;;11.87;9.43;;;;;;;10.27;85.30;96071.03;6210024;23;20194;-86
2024/03/22 06:24:39;;;;;;;10.97;9.87;;;;;;;10.31;85.25;96067.19;6208760;23;20173;-85
2024/03/22 06:27:08;;;;;;;11.20;9.80;;;;;;;10.34;84.98;96065.09;6209102;23;20170;-85
2024/03/22 06:29:33;;;;;;;10.70;9.60;;;;;;;10.35;84.79;96064.13;6209203;23;20197;-85
2024/03/22 06:32:02;;;;;;;11.30;9.37;;;;;;;10.40;84.97;96063.63;6209811;23;20177;-85
2024/03/22 06:34:27;;;;;;;10.53;9.43;;;;;;;10.49;84.86;96061.84;6208985;23;20632;-86
2024/03/22 06:36:56;;;;;;;11.73;9.97;;;;;;;10.64;84.50;96061.00;6209262;23;20235;-86
2024/03/22 06:39:23;;;;;;;10.63;9.53;;;;;;;10.83;83.81;96049.53;6209721;23;20173;-86
2024/03/22 06:41:50;;;;;;;9.93;8.93;;;;;;;11.02;82.76;96022.56;6209189;23;20173;-84
2024/03/22 06:44:17;;;;;;;9.80;8.80;;;;;;;11.18;81.42;95990.75;6208374;23;20173;-84
2024/03/22 06:46:44;;;;;;;10.13;8.87;;;;;;;11.31;80.52;95967.81;6208672;23;20173;-85
2024/03/22 06:49:09;;;;;;;9.67;8.77;;;;;;;11.40;80.04;95953.88;6209954;23;20225;-84
2024/03/22 06:51:38;;;;;;;9.80;8.80;;;;;;;11.55;78.77;95933.28;6209725;23;20174;-84
2024/03/22 06:54:26;;;;;;;9.70;8.60;;;;;;;11.69;78.53;95922.22;6210040;23;20618;-87
2024/03/22 06:57:17;;;;;;;9.67;8.67;;;;;;;11.87;77.32;95896.94;6205499;23;20165;-87
2024/03/22 06:59:47;;;;;;;9.47;8.50;;;;;;;11.97;76.54;95879.38;6208563;23;20177;-85
2024/03/22 07:02:14;;;;;;;9.20;8.00;;;;;;;12.17;75.81;95871.09;6207894;23;20189;-85
2024/03/22 07:04:49;;;;;;;9.03;8.20;;;;;;;12.37;75.53;95857.47;6208636;23;20173;-85
2024/03/22 07:07:19;;;;;;;8.83;7.77;;;;;;;12.45;74.73;95836.72;6208450;23;20196;-85
2024/03/22 07:09:51;;;;;;;9.17;7.43;;;;;;;12.61;73.84;95820.19;6209347;23;20198;-85
2024/03/22 07:12:21;;;;;;;8.47;7.50;;;;;;;12.79;72.97;95786.97;6207811;23;20213;-85
2024/03/22 07:14:59;;;;;;;8.00;7.30;;;;;;;12.83;72.02;95740.09;6207749;23;20550;-85
2024/03/22 07:17:37;;;;;;;8.03;7.23;;;;;;;12.92;71.50;95734.59;6208126;23;20170;-86
2024/03/22 07:20:24;;;;;;;7.97;7.20;;;;;;;13.17;71.34;95736.81;6209392;23;20220;-85
2024/03/22 07:22:50;;;;;;;9.33;7.50;;;;;;;13.40;70.48;95712.31;6208703;23;20199;-86
2024/03/22 07:25:16;;;;;;;7.43;6.70;;;;;;;13.61;69.67;95669.22;6208442;23;20169;-85
2024/03/22 07:27:49;;;;;;;7.87;7.17;;;;;;;13.58;69.62;95674.78;6208654;23;20184;-86
2024/03/22 07:30:21;;;;;;;8.33;7.43;;;;;;;13.37;70.41;95694.56;6209664;23;20168;-85
2024/03/22 07:32:48;;;;;;;7.97;6.87;;;;;;;13.20;71.25;95732.06;6207757;23;20287;-86
2024/03/22 07:35:14;;;;;;;7.90;6.47;;;;;;;13.03;71.78;95746.22;6207711;23;20490;-86
2024/03/22 07:37:40;;;;;;;7.83;7.13;;;;;;;12.91;72.52;95768.38;6208765;23;20216;-86
2024/03/22 07:40:11;;;;;;;8.00;6.97;;;;;;;12.85;72.86;95779.47;6208862;23;20181;-86
2024/03/22 07:42:41;;;;;;;7.37;6.67;;;;;;;12.78;73.16;95800.88;6207527;23;20711;-86
2024/03/22 07:45:25;;;;;;;9.60;7.00;;;;;;;12.85;73.72;95815.66;6208208;23;20568;-85
2024/03/22 07:47:58;;;;;;;7.50;6.73;;;;;;;12.93;73.95;95821.50;6208628;23;20161;-86
2024/03/22 07:50:23;;;;;;;8.73;6.90;;;;;;;13.17;73.67;95822.94;6207875;23;20174;-86
2024/03/22 07:53:00;;;;;;;7.80;7.10;;;;;;;13.26;73.59;95811.47;6208141;23;20216;-86
2024/03/22 07:55:54;;;;;;;;;;;;;;;;;;;;;
2024/03/22 07:58:45;;;;;;;7.70;6.90;;;;;;;13.30;72.88;95793.78;6208995;23;20150;-87
2024/03/22 08:01:28;;;;;;;7.77;7.07;;;;;;;13.46;72.66;95783.97;6208861;23;20266;-86
2024/03/22 08:04:03;;;;;;;7.67;6.90;;;;;;;13.71;71.98;95763.59;6208331;23;20279;-87
2024/03/22 08:06:52;;;;;;;7.57;6.77;;;;;;;14.03;70.57;95719.94;6208336;23;20162;-86
2024/03/22 08:09:23;;;;;;;9.03;7.00;;;;;;;14.28;69.78;95689.13;6201247;23;20740;-87
2024/03/22 08:11:54;;;;;;;7.05;6.40;;;;;;;14.36;68.79;95634.56;6208212;23;20193;-86
2024/03/22 08:14:37;;;;;;;7.32;6.65;;;;;;;14.73;68.39;95617.63;6208428;23;20173;-85
2024/03/22 08:17:57;;;;;;;9.00;6.53;;;;;;;15.16;66.33;95568.69;6208588;23;20259;-86
2024/03/22 08:20:29;;;;;;;7.38;6.57;;;;;;;15.34;64.62;95480.59;6211061;23;20170;-87
2024/03/22 08:22:55;;;;;;;7.00;6.30;;;;;;;15.57;63.19;95411.81;6208869;23;20197;-87
2024/03/22 08:34:32;;;;;;;6.53;5.93;;;;;;;17.08;57.28;95151.94;6182734;23;20193;-86
2024/03/22 08:41:10;;;;;;;7.32;5.57;;;;;;;17.49;57.02;95119.72;6117410;23;20182;-86
2024/03/22 08:43:36;;;;;;;5.85;5.35;;;;;;;17.63;57.07;95113.22;6139323;23;20193;-86
2024/03/22 08:46:14;;;;;;;6.32;5.68;;;;;;;17.54;56.38;95084.16;6209433;23;20202;-86
2024/03/22 08:48:54;;;;;;;6.25;5.75;;;;;;;17.55;56.63;95077.94;6209741;23;20390;-86
2024/03/22 08:51:23;;;;;;;7.10;5.82;;;;;;;17.49;55.95;95023.44;6210298;23;20181;-87
2024/03/22 08:57:36;;;;;;;6.68;5.57;;;;;;;17.93;55.02;95001.00;6204108;23;20546;-86
2024/03/22 09:00:53;;;;;;;6.40;5.80;;;;;;;18.13;55.13;95000.53;6210094;23;20236;-87
2024/03/22 09:03:46;;;;;;;6.68;5.30;;;;;;;18.54;54.24;94947.19;6202499;23;20527;-87
2024/03/22 09:06:16;;;;;;;5.53;4.95;;;;;;;18.69;51.49;94775.28;6196378;23;20200;-86
2024/03/22 09:09:09;;;;;;;5.72;4.88;;;;;;;18.86;51.95;94809.88;6210186;23;20224;-87
2024/03/22 09:11:36;;;;;;;5.38;4.88;;;;;;;19.10;53.38;94919.16;6208343;23;20162;-87
2024/03/22 09:17:14;;;;;;;4.47;4.10;;;;;;;19.48;49.60;94672.78;6207697;23;20177;-87
2024/03/22 09:20:19;;;;;;;6.13;4.38;;;;;;;19.67;48.77;94645.22;6209487;23;20166;-87
2024/03/22 09:22:56;;;;;;;;;;;;;;;;;;;;;
2024/03/22 09:25:34;;;;;;;7.63;6.93;;;;;;;19.90;49.22;94694.41;6209261;23;20361;-86
2024/03/22 09:28:23;;;;;;;4.75;4.35;;;;;;;20.12;48.79;94675.94;6209244;23;20170;-85
2024/03/22 09:44:41;;;;;;;5.00;4.45;;;;;;;19.63;46.80;94607.59;6208179;23;20195;-87
2024/03/22 09:47:21;;;;;;;6.40;5.55;;;;;;;19.58;47.14;94650.16;6209226;23;20170;-87
2024/03/22 09:50:01;;;;;;;5.95;4.90;;;;;;;19.78;47.47;94683.41;6209435;23;20189;-87
2024/03/22 09:56:28;;;;;;;4.63;4.15;;;;;;;19.99;47.68;94665.97;6207523;23;20173;-86
2024/03/22 10:02:20;;;;;;;4.25;3.83;;;;;;;20.11;48.13;94715.38;6176637;23;20555;-87
2024/03/22 10:11:13;;;;;;;4.55;4.05;;;;;;;20.38;46.73;94616.66;6117882;23;20202;-86
2024/03/22 10:15:35;;;;;;;;;;;;;;;;;;;;;
2024/03/22 10:17:40;;;;;;;4.90;4.40;;;;;;;20.45;45.40;94579.78;6065384;23;20172;-87
2024/03/22 10:20:27;;;;;;;5.40;3.90;;;;;;;20.34;46.55;94603.28;6029574;23;20278;-86
2024/03/22 10:26:21;;;;;;;4.07;3.78;;;;;;;20.69;46.04;94586.03;6111858;23;20253;-86
2024/03/22 10:29:49;;;;;;;7.00;3.83;;;;;;;20.43;46.14;94572.19;6209836;23;20876;-86
2024/03/22 10:32:24;;;;;;;5.57;4.30;;;;;;;20.29;46.33;94571.91;6192012;23;20283;-86
2024/03/22 10:35:39;;;;;;;4.45;4.05;;;;;;;20.16;47.29;94640.41;6207670;23;20165;-86
2024/03/22 10:39:18;;;;;;;4.72;3.80;;;;;;;20.00;47.31;94646.63;5944302;24;20236;-86
2024/03/22 10:41:49;;;;;;;4.88;4.38;;;;;;;20.08;48.48;94718.50;5964774;23;20187;-85
2024/03/22 10:48:05;;;;;;;5.00;4.43;;;;;;;20.02;47.66;94665.44;5982433;23;20224;-86
2024/03/22 10:54:08;;;;;;;6.13;4.32;;;;;;;20.09;47.50;94647.69;6058299;23;20196;-86
2024/03/22 10:57:07;;;;;;;6.80;4.13;;;;;;;20.27;47.70;94668.09;6153152;23;20208;-87
2024/03/22 10:59:40;;;;;;;6.43;5.53;;;;;;;20.53;47.79;94676.81;6077464;23;20700;-86
2024/03/22 11:13:09;;;;;;;4.93;4.25;;;;;;;20.25;47.09;94599.63;6057866;23;20201;-86
2024/03/22 11:17:06;;;;;;;6.03;3.80;;;;;;;20.12;47.63;94631.50;6137281;23;20245;-87
2024/03/22 11:18:58;;;;;;;4.90;4.35;;;;;;;20.11;47.45;94627.31;6118547;23;20985;-86
2024/03/22 11:21:55;;;;;;;4.57;4.05;;;;;;;20.17;48.18;94649.81;6145834;23;20237;-86
2024/03/22 11:24:35;;;;;;;10.55;9.68;;;;;;;20.23;47.57;94632.28;6195032;23;20178;-86
2024/03/22 11:27:11;;;;;;;4.93;4.20;;;;;;;20.24;47.93;94639.88;6211351;23;20783;-87
2024/03/22 11:29:41;;;;;;;3.70;3.40;;;;;;;20.44;47.78;94631.28;6211123;23;20645;-86
2024/03/22 11:35:19;;;;;;;6.78;4.43;;;;;;;20.71;46.92;94598.88;6208037;23;20184;-87
2024/03/22 11:38:18;;;;;;;4.45;3.90;;;;;;;20.66;47.16;94599.66;6212013;23;20245;-86
2024/03/22 11:40:48;;;;;;;8.18;4.53;;;;;;;20.61;46.94;94582.13;6060521;23;20181;-89
2024/03/22 11:43:16;;;;;;;4.97;4.43;;;;;;;20.52;47.78;94586.31;6199012;23;20197;-86
2024/03/22 11:45:45;;;;;;;5.50;4.57;;;;;;;20.23;47.04;94556.47;6209115;23;20573;-86
2024/03/22 11:48:13;;;;;;;4.57;3.75;;;;;;;20.17;48.29;94646.41;6210538;23;20169;-87
2024/03/22 11:50:39;;;;;;;6.72;3.83;;;;;;;20.27;49.63;94694.25;6209588;23;20208;-87
2024/03/22 11:53:05;;;;;;;8.63;5.13;;;;;;;20.35;48.11;94623.16;6209640;23;20193;-87
2024/03/22 11:55:32;;;;;;;7.68;6.63;;;;;;;20.34;47.00;94553.63;6210504;23;20480;-86
2024/03/22 11:57:58;;;;;;;5.53;4.10;;;;;;;20.08;47.22;94522.50;6211019;23;20209;-85
2024/03/22 12:00:29;;;;;;;5.07;4.28;;;;;;;20.17;47.64;94563.56;6211761;23;20862;-86
2024/03/22 12:02:54;;;;;;;4.20;3.72;;;;;;;20.17;47.58;94550.50;6210481;23;20272;-85
2024/03/22 12:05:23;;;;;;;4.20;3.80;;;;;;;20.19;46.89;94513.63;6209795;23;20189;-85
2024/03/22 12:07:48;;;;;;;4.65;4.32;;;;;;;20.23;47.02;94512.81;6202318;23;20204;-85
2024/03/22 12:10:17;;;;;;;5.03;4.53;;;;;;;20.27;47.30;94532.19;6204987;23;20225;-86
2024/03/22 12:12:44;;;;;;;4.97;3.80;;;;;;;20.27;46.54;94492.97;6207337;23;20692;-85
2024/03/22 12:15:11;;;;;;;5.85;4.03;;;;;;;20.21;47.66;94537.66;6210056;23;20174;-85
2024/03/22 12:17:37;;;;;;;4.32;3.72;;;;;;;20.08;46.89;94499.00;6210139;23;20182;-86
2024/03/22 12:20:04;;;;;;;4.30;3.75;;;;;;;20.13;46.98;94488.53;6210806;23;20707;-86
2024/03/22 12:22:31;;;;;;;10.68;9.65;;;;;;;20.09;47.97;94537.94;6209709;23;20193;-84
2024/03/22 12:25:00;;;;;;;10.27;9.18;;;;;;;20.21;47.68;94538.44;6209591;23;20260;-86
2024/03/22 12:27:28;;;;;;;5.20;4.70;;;;;;;20.27;48.04;94539.22;6210554;23;20636;-86
2024/03/22 12:30:15;;;;;;;5.68;3.95;;;;;;;20.24;47.34;94506.56;6211032;23;20221;-85
2024/03/22 12:32:50;;;;;;;3.97;3.60;;;;;;;20.21;48.11;94527.97;6210223;23;20190;-86
2024/03/22 12:35:19;;;;;;;5.82;3.90;;;;;;;20.22;48.56;94547.84;6209426;23;20503;-86
2024/03/22 12:37:49;;;;;;;4.15;3.65;;;;;;;20.11;48.16;94528.00;6210947;23;20253;-86
2024/03/22 12:40:18;;;;;;;5.10;4.63;;;;;;;20.13;47.78;94507.63;6211085;23;20627;-87
2024/03/22 12:42:48;;;;;;;5.35;4.88;;;;;;;20.04;46.75;94453.50;6210115;23;20185;-85
2024/03/22 12:45:18;;;;;;;4.95;4.10;;;;;;;20.16;47.46;94467.91;6209961;23;20220;-86
2024/03/22 12:47:44;;;;;;;4.30;3.65;;;;;;;20.22;47.28;94472.06;6210540;23;20405;-86
2024/03/22 12:50:18;;;;;;;4.35;3.88;;;;;;;20.31;46.69;94441.72;6210196;23;20189;-86
2024/03/22 12:52:47;;;;;;;4.10;3.70;;;;;;;20.39;46.76;94429.19;6209976;23;20312;-86
2024/03/22 12:55:15;;;;;;;6.13;3.80;;;;;;;20.40;47.25;94468.13;6210031;23;20236;-86
2024/03/22 12:57:43;;;;;;;3.50;3.20;;;;;;;20.30;46.79;94421.84;6209363;23;20170;-85
2024/03/22 13:00:14;;;;;;;5.63;3.60;;;;;;;20.06;47.07;94433.91;6211297;23;20598;-85
2024/03/22 13:02:43;;;;;;;5.85;3.83;;;;;;;19.88;46.81;94405.72;6210312;23;20272;-86
2024/03/22 13:05:09;;;;;;;5.00;3.33;;;;;;;19.97;46.72;94431.06;6209424;23;20228;-86
2024/03/22 13:07:39;;;;;;;4.68;3.50;;;;;;;19.91;47.26;94436.56;6210720;23;20192;-86
2024/03/22 13:10:10;;;;;;;10.38;8.13;;;;;;;20.06;47.18;94433.91;6211164;23;20284;-86
2024/03/22 13:12:38;;;;;;;5.82;5.25;;;;;;;20.16;46.97;94425.28;6208819;23;20209;-86
2024/03/22 13:15:09;;;;;;;3.97;3.45;;;;;;;20.19;46.62;94391.56;6210353;23;20489;-85
2024/03/22 13:17:44;;;;;;;3.28;3.05;;;;;;;20.21;46.45;94392.06;6211005;23;20513;-86
2024/03/22 13:20:14;;;;;;;3.95;3.30;;;;;;;20.29;46.37;94352.31;6211294;23;20249;-86
2024/03/22 13:22:41;;;;;;;4.93;3.05;;;;;;;20.30;46.18;94364.34;6209474;23;20214;-86
2024/03/22 13:25:10;;;;;;;4.28;3.45;;;;;;;20.37;46.23;94337.19;6210686;23;20231;-86
2024/03/22 13:27:52;;;;;;;3.45;2.97;;;;;;;20.51;46.27;94338.94;6210265;23;20176;-86
2024/03/22 13:30:18;;;;;;;3.50;3.20;;;;;;;20.40;44.96;94274.66;6211744;23;20181;-86
2024/03/22 13:32:44;;;;;;;3.60;3.10;;;;;;;20.31;45.08;94252.72;6211480;23;20820;-86
2024/03/22 13:35:15;;;;;;;5.82;2.85;;;;;;;20.31;45.71;94273.63;6209834;23;20166;-85
2024/03/22 13:37:42;;;;;;;3.10;2.90;;;;;;;20.42;45.81;94309.16;6211265;23;20223;-86
2024/03/22 13:40:10;;;;;;;3.78;3.42;;;;;;;20.38;45.83;94307.38;6211284;23;20170;-86
2024/03/22 13:42:47;;;;;;;3.80;3.50;;;;;;;20.53;45.71;94299.44;6210594;23;20264;-86